Time;durP1;ratioP1;P1;durP2;ratioP2;P2;SDS_P1;SDS_P2;PMS_P1;PMS_P2;Temp;Humidity;BMP_temperature;BMP_pressure;BME280_temperature;BME280_humidity;BME280_pressure;Samples;Min_cycle;Max_cycle;Signal;HPM_P1;HPM_P2
2022/05/24 00:00:09;;;;;;;2.30;1.40;;;17.20;99.90;;;;;;5055455;28;20865;-64
2022/05/24 00:02:36;;;;;;;3.73;2.37;;;17.20;99.90;;;;;;5055151;28;20544;-65
2022/05/24 00:05:03;;;;;;;4.67;2.60;;;17.20;99.90;;;;;;5055005;28;20445;-65
2022/05/24 00:07:31;;;;;;;4.97;2.10;;;17.20;99.90;;;;;;5055233;28;20528;-65
2022/05/24 00:10:00;;;;;;;4.00;2.10;;;17.20;99.90;;;;;;5054926;28;20449;-65
2022/05/24 00:12:27;;;;;;;3.50;1.80;;;17.20;99.90;;;;;;5055045;28;20459;-65
2022/05/24 00:17:48;;;;;;;5.23;2.60;;;17.00;99.90;;;;;;5049261;28;20429;-65
2022/05/24 00:20:15;;;;;;;5.20;2.20;;;16.90;99.90;;;;;;5055004;28;20958;-65
2022/05/24 00:22:42;;;;;;;2.80;1.80;;;16.80;99.90;;;;;;5054774;28;20437;-65
2022/05/24 00:25:11;;;;;;;3.00;1.63;;;16.80;99.90;;;;;;5055052;28;20447;-66
2022/05/24 00:27:38;;;;;;;5.50;2.30;;;16.80;99.90;;;;;;5054697;28;20444;-65
2022/05/24 00:30:06;;;;;;;4.70;1.90;;;16.70;99.90;;;;;;5055003;28;20871;-65
2022/05/24 00:32:33;;;;;;;3.80;1.80;;;16.70;99.90;;;;;;5054808;28;20796;-65
2022/05/24 00:35:00;;;;;;;2.60;1.67;;;16.60;99.90;;;;;;5054622;28;20525;-65
2022/05/24 00:37:29;;;;;;;4.03;1.80;;;16.70;99.90;;;;;;5054417;28;20738;-64
2022/05/24 00:39:56;;;;;;;3.50;1.97;;;16.70;99.90;;;;;;5054601;28;20445;-65
2022/05/24 00:42:28;;;;;;;6.27;2.13;;;16.60;99.90;;;;;;5054236;28;21009;-65
2022/05/24 00:45:02;;;;;;;4.80;1.80;;;16.60;99.90;;;;;;5054509;28;20437;-65
2022/05/24 00:47:33;;;;;;;2.77;1.90;;;16.70;99.90;;;;;;5054302;28;20471;-65
2022/05/24 00:50:05;;;;;;;2.97;2.00;;;16.70;99.90;;;;;;5054357;28;20437;-65
2022/05/24 00:52:39;;;;;;;3.97;2.53;;;16.70;99.90;;;;;;5054109;28;20448;-65
2022/05/24 00:55:09;;;;;;;4.00;1.97;;;16.70;99.90;;;;;;5054082;28;20436;-65
2022/05/24 00:57:43;;;;;;;4.27;1.97;;;16.80;99.90;;;;;;5054246;28;20532;-65
2022/05/24 01:00:14;;;;;;;6.40;2.43;;;16.80;99.90;;;;;;5054300;28;20524;-65
2022/05/24 01:02:43;;;;;;;4.10;2.03;;;16.80;99.90;;;;;;5054108;28;20531;-65
2022/05/24 01:05:14;;;;;;;3.70;1.70;;;16.80;99.90;;;;;;5053782;28;20441;-65
2022/05/24 01:07:41;;;;;;;5.00;2.20;;;16.90;99.90;;;;;;5054131;28;20459;-65
2022/05/24 01:10:12;;;;;;;4.17;2.23;;;16.90;99.90;;;;;;5054036;28;20447;-66
2022/05/24 01:12:45;;;;;;;4.00;2.07;;;16.90;99.90;;;;;;5053412;28;20529;-65
2022/05/24 01:15:14;;;;;;;3.13;2.13;;;16.90;99.90;;;;;;5053807;28;20451;-65
2022/05/24 01:17:42;;;;;;;3.47;1.60;;;16.90;99.90;;;;;;5053863;28;20447;-65
2022/05/24 01:20:10;;;;;;;3.73;2.20;;;17.00;99.90;;;;;;5053478;28;20515;-65
2022/05/24 01:22:51;;;;;;;4.00;1.97;;;17.00;99.90;;;;;;5053719;28;20485;-65
2022/05/24 01:25:26;;;;;;;4.63;2.53;;;17.00;99.90;;;;;;5053154;28;20444;-66
2022/05/24 01:27:54;;;;;;;4.57;2.27;;;16.90;99.90;;;;;;5053706;28;20523;-65
2022/05/24 01:30:21;;;;;;;6.53;2.80;;;16.80;99.90;;;;;;5053325;28;20851;-64
2022/05/24 01:38:21;;;;;;;4.80;1.70;;;16.80;99.90;;;;;;5053521;28;20436;-65
2022/05/24 01:40:50;;;;;;;3.87;1.93;;;16.90;99.90;;;;;;5053255;28;20436;-65
2022/05/24 01:43:21;;;;;;;2.13;1.40;;;16.90;99.90;;;;;;5052953;28;20525;-65
2022/05/24 01:45:52;;;;;;;7.77;2.80;;;16.80;99.90;;;;;;5053195;28;20531;-65
2022/05/24 01:48:26;;;;;;;3.83;2.20;;;16.90;99.90;;;;;;5053129;28;20860;-65
2022/05/24 01:50:55;;;;;;;4.40;3.23;;;16.90;99.90;;;;;;5053076;28;20439;-65
2022/05/24 01:53:28;;;;;;;4.40;2.43;;;16.90;99.90;;;;;;5053143;28;20472;-65
2022/05/24 01:55:59;;;;;;;5.10;1.87;;;16.90;99.90;;;;;;5053128;28;20524;-65
2022/05/24 01:58:32;;;;;;;4.97;2.33;;;16.90;99.90;;;;;;5052970;28;20532;-66
2022/05/24 02:01:04;;;;;;;4.80;2.30;;;16.90;99.90;;;;;;5053078;28;20533;-65
2022/05/24 02:03:30;;;;;;;4.27;2.50;;;16.90;99.90;;;;;;5053125;28;20524;-65
2022/05/24 02:05:58;;;;;;;5.23;1.67;;;16.90;99.90;;;;;;5052971;28;20508;-65
2022/05/24 02:08:25;;;;;;;3.20;2.10;;;16.90;99.90;;;;;;5052883;28;20520;-65
2022/05/24 02:10:56;;;;;;;4.23;2.27;;;16.80;99.90;;;;;;5052433;28;20436;-65
2022/05/24 02:13:31;;;;;;;4.87;2.77;;;16.80;99.90;;;;;;5052826;28;20536;-65
2022/05/24 02:16:04;;;;;;;5.13;2.60;;;16.80;99.90;;;;;;5052833;28;20535;-65
2022/05/24 02:18:32;;;;;;;7.00;2.97;;;16.80;99.90;;;;;;5052853;28;20436;-65
2022/05/24 02:20:59;;;;;;;5.00;2.97;;;16.80;99.90;;;;;;5052732;28;20441;-66
2022/05/24 02:23:26;;;;;;;3.80;2.50;;;16.80;99.90;;;;;;5052887;28;20528;-65
2022/05/24 02:25:56;;;;;;;4.43;2.30;;;16.90;99.90;;;;;;5052756;28;20443;-65
2022/05/24 02:28:27;;;;;;;7.67;2.77;;;16.90;99.90;;;;;;5052537;28;20520;-65
2022/05/24 02:30:58;;;;;;;3.87;2.77;;;16.90;99.90;;;;;;5052811;28;20817;-64
2022/05/24 02:33:25;;;;;;;4.40;2.33;;;17.00;99.90;;;;;;5052801;28;20530;-65
2022/05/24 02:35:53;;;;;;;5.37;2.93;;;17.00;99.90;;;;;;5052054;28;20451;-65
2022/05/24 02:38:21;;;;;;;3.60;2.20;;;16.90;99.90;;;;;;5052500;28;20437;-65
2022/05/24 02:43:36;;;;;;;5.63;2.83;;;16.80;99.90;;;;;;5043166;28;20433;-65
2022/05/24 02:46:04;;;;;;;3.67;2.20;;;16.80;99.90;;;;;;5052379;28;20443;-65
2022/05/24 02:48:31;;;;;;;5.20;2.60;;;16.80;99.90;;;;;;5052334;28;20465;-65
2022/05/24 02:50:58;;;;;;;5.43;2.50;;;16.90;99.90;;;;;;5052489;28;20865;-65
2022/05/24 02:53:25;;;;;;;4.13;2.57;;;16.90;99.90;;;;;;5052560;28;20476;-65
2022/05/24 02:55:52;;;;;;;3.50;2.20;;;17.00;99.90;;;;;;5052291;28;20437;-65
2022/05/24 02:58:19;;;;;;;4.37;2.30;;;17.00;99.90;;;;;;5052538;28;20447;-65
2022/05/24 03:00:46;;;;;;;3.07;2.20;;;17.00;99.90;;;;;;5052026;28;20437;-65
2022/05/24 03:03:14;;;;;;;4.80;2.40;;;17.00;99.90;;;;;;5051731;28;20563;-65
2022/05/24 03:05:41;;;;;;;3.10;1.80;;;17.00;99.90;;;;;;5051966;28;20951;-66
2022/05/24 03:10:53;;;;;;;4.70;2.90;;;17.00;99.90;;;;;;5051832;28;20478;-65
2022/05/24 03:16:09;;;;;;;6.13;2.77;;;17.10;99.90;;;;;;5052235;28;20498;-65
2022/05/24 03:18:38;;;;;;;4.70;3.00;;;17.00;99.90;;;;;;5052106;28;20477;-64
2022/05/24 03:21:05;;;;;;;5.33;2.40;;;17.00;99.90;;;;;;5051710;28;20437;-65
2022/05/24 03:23:32;;;;;;;6.00;2.73;;;17.10;99.90;;;;;;5052129;28;20480;-65
2022/05/24 03:25:59;;;;;;;3.20;2.40;;;17.10;99.90;;;;;;5052186;28;20472;-64
2022/05/24 03:28:26;;;;;;;4.03;2.43;;;17.00;99.90;;;;;;5051805;28;20528;-65
2022/05/24 03:30:53;;;;;;;5.23;3.40;;;17.00;99.90;;;;;;5052173;28;20842;-65
2022/05/24 03:33:20;;;;;;;5.33;3.13;;;17.00;99.90;;;;;;5051767;28;20520;-65
2022/05/24 03:35:48;;;;;;;4.50;2.83;;;17.00;99.90;;;;;;5052065;28;20441;-65
2022/05/24 03:38:15;;;;;;;5.43;2.50;;;17.00;99.90;;;;;;5055611;28;20833;-65
2022/05/24 03:40:42;;;;;;;3.70;2.50;;;17.00;99.90;;;;;;5055394;28;20451;-65
2022/05/24 03:43:12;;;;;;;5.37;2.80;;;17.00;99.90;;;;;;5055496;28;20480;-65
2022/05/24 03:45:39;;;;;;;6.10;2.87;;;17.00;99.90;;;;;;5055720;28;20441;-65
2022/05/24 03:48:07;;;;;;;3.00;2.40;;;16.90;99.90;;;;;;5055307;28;20522;-65
2022/05/24 03:50:34;;;;;;;4.50;2.93;;;16.90;99.90;;;;;;5055226;28;20440;-65
2022/05/24 03:53:02;;;;;;;4.13;3.20;;;16.90;99.90;;;;;;5055534;28;20507;-65
2022/05/24 03:55:29;;;;;;;4.00;2.27;;;16.90;99.90;;;;;;5055245;28;21622;-65
2022/05/24 03:58:02;;;;;;;7.63;3.13;;;16.90;99.90;;;;;;5055354;28;20437;-65
2022/05/24 04:00:31;;;;;;;3.87;2.97;;;16.90;99.90;;;;;;5055435;28;20472;-64
2022/05/24 04:02:59;;;;;;;4.00;2.40;;;16.90;99.90;;;;;;5055049;28;20579;-65
2022/05/24 04:05:26;;;;;;;6.40;3.67;;;16.90;99.90;;;;;;5055319;28;20539;-66
2022/05/24 04:07:53;;;;;;;4.97;3.20;;;16.90;99.90;;;;;;5054930;28;20513;-65
2022/05/24 04:10:22;;;;;;;5.27;2.90;;;16.90;99.90;;;;;;5055246;28;20433;-65
2022/05/24 04:12:50;;;;;;;4.47;3.07;;;16.90;99.90;;;;;;5055369;28;20448;-65
2022/05/24 04:15:17;;;;;;;5.80;3.40;;;17.00;99.90;;;;;;5054784;28;20468;-65
2022/05/24 04:17:47;;;;;;;4.90;3.47;;;17.00;99.90;;;;;;5054887;28;20520;-65
2022/05/24 04:20:15;;;;;;;6.70;4.23;;;17.00;99.90;;;;;;5054890;28;20436;-67
2022/05/24 04:22:43;;;;;;;5.10;3.43;;;17.00;99.90;;;;;;5054987;28;20480;-65
2022/05/24 04:25:12;;;;;;;7.33;3.33;;;17.00;99.90;;;;;;5054707;28;20449;-66
2022/05/24 04:27:40;;;;;;;4.97;3.00;;;17.00;99.90;;;;;;5054951;28;20539;-66
2022/05/24 04:30:09;;;;;;;5.40;3.87;;;17.00;99.90;;;;;;5054950;28;20528;-65
2022/05/24 04:32:36;;;;;;;5.37;4.47;;;17.00;99.90;;;;;;5055112;28;20562;-65
2022/05/24 04:35:07;;;;;;;7.03;3.60;;;17.00;99.90;;;;;;5054588;28;20512;-66
2022/05/24 04:37:34;;;;;;;7.00;3.37;;;17.00;99.90;;;;;;5054973;28;20459;-65
2022/05/24 04:40:01;;;;;;;6.50;2.83;;;17.00;99.90;;;;;;5054471;28;20520;-65
2022/05/24 04:42:27;;;;;;;5.27;3.33;;;17.00;99.90;;;;;;5054699;28;20496;-65
2022/05/24 04:44:59;;;;;;;4.30;2.93;;;17.00;99.90;;;;;;5054593;28;20449;-65
2022/05/24 04:47:29;;;;;;;8.43;3.30;;;17.00;99.90;;;;;;5053631;28;20471;-65
2022/05/24 04:49:58;;;;;;;3.03;2.07;;;17.00;99.90;;;;;;5053724;28;20932;-65
2022/05/24 04:52:27;;;;;;;4.97;2.80;;;17.00;99.90;;;;;;5054649;28;20527;-65
2022/05/24 04:54:54;;;;;;;3.70;2.57;;;17.00;99.90;;;;;;5054289;28;20437;-65
2022/05/24 04:57:22;;;;;;;3.90;2.60;;;17.10;99.90;;;;;;5054321;28;20528;-65
2022/05/24 04:59:49;;;;;;;5.60;2.30;;;17.10;99.90;;;;;;5054287;28;20539;-65
2022/05/24 05:02:18;;;;;;;4.33;2.50;;;17.00;99.90;;;;;;5054314;28;20487;-66
2022/05/24 05:04:45;;;;;;;4.90;2.90;;;17.00;99.90;;;;;;5053960;28;20441;-65
2022/05/24 05:07:13;;;;;;;5.00;3.10;;;17.00;99.90;;;;;;5053976;28;20483;-66
2022/05/24 05:09:40;;;;;;;3.60;2.80;;;17.00;99.90;;;;;;5054105;28;20437;-65
2022/05/24 05:12:09;;;;;;;4.43;3.00;;;17.00;99.90;;;;;;5054152;28;20484;-65
2022/05/24 05:14:38;;;;;;;5.47;2.50;;;17.10;99.90;;;;;;5054198;28;20519;-65
2022/05/24 05:17:05;;;;;;;6.07;2.80;;;17.10;99.90;;;;;;5054090;28;20607;-65
2022/05/24 05:19:34;;;;;;;4.40;3.00;;;17.10;99.90;;;;;;5053989;28;21018;-65
2022/05/24 05:22:02;;;;;;;3.90;2.93;;;17.20;99.90;;;;;;5053351;28;20528;-65
2022/05/24 05:24:29;;;;;;;4.17;3.03;;;17.20;99.90;;;;;;5053347;28;20951;-65
2022/05/24 05:26:56;;;;;;;4.40;3.10;;;17.20;99.90;;;;;;5053596;28;20468;-65
2022/05/24 05:32:05;;;;;;;5.27;3.20;;;17.20;99.90;;;;;;5053521;28;20498;-65
2022/05/24 05:34:32;;;;;;;6.97;3.37;;;17.20;99.90;;;;;;5053711;28;20520;-65
2022/05/24 05:37:04;;;;;;;4.73;3.10;;;17.20;99.90;;;;;;5053330;28;20488;-65
2022/05/24 05:39:31;;;;;;;4.70;3.00;;;17.20;99.90;;;;;;5053321;28;20468;-65
2022/05/24 05:41:58;;;;;;;3.90;2.80;;;17.30;99.90;;;;;;5053252;28;20523;-65
2022/05/24 05:44:25;;;;;;;4.93;2.80;;;17.30;99.90;;;;;;5053370;28;20544;-65
2022/05/24 05:46:52;;;;;;;12.07;5.17;;;17.30;99.90;;;;;;5053355;28;20524;-65
2022/05/24 05:49:19;;;;;;;4.80;3.43;;;17.30;99.90;;;;;;5053224;28;20472;-65
2022/05/24 05:51:46;;;;;;;5.50;2.80;;;17.30;99.90;;;;;;5053179;28;20437;-66
2022/05/24 05:54:14;;;;;;;5.37;3.40;;;17.40;99.90;;;;;;5053414;28;20531;-65
2022/05/24 05:56:42;;;;;;;6.70;3.37;;;17.40;99.90;;;;;;5053170;28;20974;-65
2022/05/24 05:59:09;;;;;;;6.53;3.87;;;17.40;99.90;;;;;;5053178;28;20995;-65
2022/05/24 06:01:36;;;;;;;4.00;3.00;;;17.40;99.90;;;;;;5053308;28;20461;-65
2022/05/24 06:04:03;;;;;;;4.90;2.87;;;17.40;99.90;;;;;;5053162;28;20996;-65
2022/05/24 06:06:34;;;;;;;5.30;3.23;;;17.40;99.90;;;;;;5053236;28;20437;-67
2022/05/24 06:09:01;;;;;;;6.30;2.50;;;17.40;99.90;;;;;;5052886;28;20441;-65
2022/05/24 06:11:29;;;;;;;4.03;2.37;;;17.40;99.90;;;;;;5052902;28;20911;-65
2022/05/24 06:13:57;;;;;;;3.93;2.77;;;17.40;99.90;;;;;;5052855;28;20463;-65
2022/05/24 06:16:24;;;;;;;4.17;2.80;;;17.30;99.90;;;;;;5052901;28;20959;-66
2022/05/24 06:18:51;;;;;;;5.80;3.20;;;17.20;99.90;;;;;;5053199;28;20510;-66
2022/05/24 06:21:18;;;;;;;4.00;3.00;;;17.20;99.90;;;;;;5052807;28;20524;-65
2022/05/24 06:23:44;;;;;;;3.90;2.60;;;17.20;99.90;;;;;;5052929;28;20798;-65
2022/05/24 06:26:17;;;;;;;3.87;2.53;;;17.30;99.90;;;;;;5053093;28;20437;-65
2022/05/24 06:28:45;;;;;;;5.17;2.80;;;17.30;99.90;;;;;;5052808;28;20444;-65
2022/05/24 06:31:12;;;;;;;5.10;3.33;;;17.30;99.90;;;;;;5052418;28;20472;-65
2022/05/24 06:33:39;;;;;;;5.63;2.40;;;17.30;99.90;;;;;;5052622;28;20911;-65
2022/05/24 06:36:06;;;;;;;4.87;2.33;;;17.30;99.90;;;;;;5052337;28;21029;-65
2022/05/24 06:38:33;;;;;;;3.30;1.90;;;17.30;99.90;;;;;;5052831;28;20535;-65
2022/05/24 06:41:00;;;;;;;3.87;2.07;;;17.30;99.90;;;;;;5052652;28;20838;-65
2022/05/24 06:43:27;;;;;;;7.00;1.80;;;17.30;99.90;;;;;;5052645;28;20964;-65
2022/05/24 06:45:56;;;;;;;3.90;2.13;;;17.30;99.90;;;;;;5052576;28;20532;-65
2022/05/24 06:48:23;;;;;;;3.70;1.97;;;17.30;99.90;;;;;;5052540;28;20472;-65
2022/05/24 06:50:50;;;;;;;4.13;1.83;;;17.30;99.90;;;;;;5052147;28;20491;-65
2022/05/24 06:53:17;;;;;;;5.53;1.97;;;17.30;99.90;;;;;;5052690;28;20511;-65
2022/05/24 06:55:44;;;;;;;4.53;2.43;;;17.20;99.90;;;;;;5052737;28;20463;-65
2022/05/24 06:58:11;;;;;;;4.37;2.27;;;17.20;99.90;;;;;;5052393;28;20441;-65
2022/05/24 07:03:24;;;;;;;8.33;3.00;;;17.20;99.90;;;;;;5052271;28;20478;-65
2022/05/24 07:05:52;;;;;;;5.40;2.30;;;17.20;99.90;;;;;;5052364;28;20531;-66
2022/05/24 07:08:19;;;;;;;3.10;2.17;;;17.20;99.90;;;;;;5052536;28;20437;-65
2022/05/24 07:10:46;;;;;;;6.13;2.47;;;17.20;99.90;;;;;;5052153;28;20611;-65
2022/05/24 07:13:17;;;;;;;3.33;2.20;;;17.20;99.90;;;;;;5056331;28;20911;-65
2022/05/24 07:15:44;;;;;;;3.97;2.33;;;17.20;99.90;;;;;;5055856;28;20453;-66
2022/05/24 07:18:13;;;;;;;4.00;2.10;;;17.20;99.90;;;;;;5056153;28;20456;-65
2022/05/24 07:20:41;;;;;;;6.00;2.37;;;17.20;99.90;;;;;;5056296;28;20523;-65
2022/05/24 07:23:10;;;;;;;3.10;2.37;;;17.20;99.90;;;;;;5056221;28;20826;-67
2022/05/24 07:25:37;;;;;;;4.10;1.77;;;17.20;99.90;;;;;;5056345;28;20444;-65
2022/05/24 07:28:05;;;;;;;7.90;2.57;;;17.20;99.90;;;;;;5056031;28;20447;-67
2022/05/24 07:30:32;;;;;;;4.43;2.40;;;17.10;99.90;;;;;;5056171;28;20451;-64
2022/05/24 07:33:00;;;;;;;4.77;3.33;;;17.20;99.90;;;;;;5056111;28;20440;-64
2022/05/24 07:35:27;;;;;;;6.30;2.10;;;17.10;99.90;;;;;;5056046;28;20523;-65
2022/05/24 07:37:56;;;;;;;3.70;1.90;;;17.10;99.90;;;;;;5056066;28;20532;-65
2022/05/24 07:45:56;;;;;;;4.13;1.77;;;17.10;99.90;;;;;;5055983;28;20510;-65
2022/05/24 07:48:24;;;;;;;5.80;1.87;;;17.10;99.90;;;;;;5055693;28;20974;-65
2022/05/24 07:50:51;;;;;;;3.30;1.60;;;17.10;99.90;;;;;;5055097;28;20437;-65
2022/05/24 07:53:20;;;;;;;5.10;1.80;;;17.10;99.90;;;;;;5055749;28;20444;-65
2022/05/24 07:55:47;;;;;;;5.40;1.90;;;17.10;99.90;;;;;;5055510;28;20476;-66
2022/05/24 07:58:15;;;;;;;4.17;1.80;;;17.10;99.90;;;;;;5054998;28;21006;-65
2022/05/24 08:00:42;;;;;;;3.73;1.97;;;17.10;99.90;;;;;;5055471;28;20532;-66
2022/05/24 08:03:09;;;;;;;2.30;1.70;;;17.10;99.90;;;;;;5055472;28;20495;-65
2022/05/24 08:05:37;;;;;;;4.40;2.13;;;17.10;99.90;;;;;;5055579;28;20785;-65
2022/05/24 08:08:06;;;;;;;3.13;1.80;;;17.10;99.90;;;;;;5055493;28;20433;-65
2022/05/24 08:10:36;;;;;;;2.67;1.80;;;17.10;99.90;;;;;;5055412;28;20858;-65
2022/05/24 08:13:05;;;;;;;3.20;2.57;;;17.10;99.90;;;;;;5055103;28;20528;-65
2022/05/24 08:15:32;;;;;;;5.30;2.20;;;17.10;99.90;;;;;;5055071;28;20934;-65
2022/05/24 08:18:00;;;;;;;3.17;2.43;;;17.10;99.90;;;;;;5055033;28;20515;-66
2022/05/24 08:20:29;;;;;;;3.40;2.00;;;17.10;99.90;;;;;;5055117;28;20510;-65
2022/05/24 08:22:57;;;;;;;3.40;2.37;;;17.10;99.90;;;;;;5054738;28;20763;-65
2022/05/24 08:25:25;;;;;;;4.37;1.50;;;17.20;99.90;;;;;;5055026;28;20473;-67
2022/05/24 08:27:54;;;;;;;2.17;1.20;;;17.20;99.90;;;;;;5054901;28;20454;-65
2022/05/24 08:30:21;;;;;;;2.37;1.37;;;17.20;99.90;;;;;;5054598;28;20545;-65
2022/05/24 08:32:48;;;;;;;2.97;1.70;;;17.20;99.90;;;;;;5055035;28;20520;-65
2022/05/24 08:35:18;;;;;;;2.20;1.40;;;17.20;99.90;;;;;;5054689;28;20476;-65
2022/05/24 08:37:46;;;;;;;9.00;1.97;;;17.20;99.90;;;;;;5054726;28;20543;-65
2022/05/24 08:40:16;;;;;;;6.00;2.30;;;17.20;99.90;;;;;;5054711;28;20437;-65
2022/05/24 08:43:12;;;;;;;6.53;2.70;;;17.20;99.90;;;;;;5054465;28;20516;-65
2022/05/24 08:48:37;;;;;;;3.23;1.10;;;17.20;99.90;;;;;;5054332;28;20559;-65
2022/05/24 08:51:11;;;;;;;3.60;1.80;;;17.20;99.80;;;;;;5054815;28;20801;-64
2022/05/24 08:53:43;;;;;;;2.10;1.20;;;17.10;99.30;;;;;;5054170;28;20524;-65
2022/05/24 08:56:15;;;;;;;3.27;1.40;;;17.10;99.40;;;;;;5054409;28;20443;-67
2022/05/24 08:58:50;;;;;;;4.03;1.40;;;17.10;99.30;;;;;;5054593;28;20445;-65
2022/05/24 09:01:23;;;;;;;5.77;3.70;;;17.10;99.40;;;;;;5054120;28;20436;-66
2022/05/24 09:03:51;;;;;;;3.90;1.40;;;17.00;99.70;;;;;;5054357;28;20571;-65
2022/05/24 09:06:32;;;;;;;5.40;2.80;;;17.10;98.40;;;;;;5054061;28;20503;-65
2022/05/24 09:09:14;;;;;;;6.50;1.87;;;17.10;98.70;;;;;;5054297;28;20516;-65
2022/05/24 09:11:54;;;;;;;2.77;1.80;;;17.10;99.40;;;;;;5053880;28;20437;-65
2022/05/24 09:14:29;;;;;;;3.53;1.60;;;17.10;98.40;;;;;;5054215;28;20468;-65
2022/05/24 09:17:04;;;;;;;2.17;0.90;;;17.10;97.00;;;;;;5054210;28;20447;-64
2022/05/24 09:19:35;;;;;;;5.57;1.30;;;17.00;97.40;;;;;;5053974;28;20447;-65
2022/05/24 09:22:03;;;;;;;3.00;1.40;;;17.10;98.40;;;;;;5054330;28;20453;-65
2022/05/24 09:24:42;;;;;;;2.80;1.57;;;17.20;98.70;;;;;;5053801;28;20484;-65
2022/05/24 09:27:12;;;;;;;5.80;3.60;;;17.20;98.20;;;;;;5053901;28;20460;-66
2022/05/24 09:29:57;;;;;;;3.60;1.73;;;17.40;98.80;;;;;;5053987;28;20461;-67
2022/05/24 09:32:35;;;;;;;3.33;1.63;;;17.50;99.10;;;;;;5053845;28;20524;-64
2022/05/24 09:35:19;;;;;;;3.50;1.50;;;17.50;97.40;;;;;;5053310;28;20436;-65
2022/05/24 09:37:55;;;;;;;4.57;1.93;;;17.50;97.40;;;;;;5053804;28;20539;-65
2022/05/24 09:40:25;;;;;;;2.77;1.60;;;17.60;97.90;;;;;;5053672;28;20440;-65
2022/05/24 09:42:52;;;;;;;3.20;1.40;;;17.70;98.00;;;;;;5053738;28;20443;-65
2022/05/24 09:45:24;;;;;;;4.97;1.90;;;17.80;98.20;;;;;;5053597;28;20491;-65
2022/05/24 09:47:55;;;;;;;3.67;1.83;;;17.80;96.50;;;;;;5053485;28;20524;-65
2022/05/24 09:50:25;;;;;;;3.17;1.63;;;17.70;95.90;;;;;;5053790;28;20563;-65
2022/05/24 09:53:15;;;;;;;3.03;1.60;;;17.80;96.10;;;;;;5053562;28;20527;-65
2022/05/24 09:55:45;;;;;;;2.40;1.20;;;18.00;95.40;;;;;;5053432;28;20469;-65
2022/05/24 09:58:34;;;;;;;2.70;1.20;;;18.00;94.90;;;;;;5053334;28;20433;-64
2022/05/24 10:01:07;;;;;;;3.60;1.53;;;18.00;95.60;;;;;;5049060;28;20525;-65
2022/05/24 10:03:35;;;;;;;2.30;1.23;;;18.10;94.60;;;;;;5053118;28;21010;-66
2022/05/24 10:06:11;;;;;;;2.97;1.73;;;17.90;93.20;;;;;;5053075;28;20524;-66
2022/05/24 10:08:41;;;;;;;2.20;1.07;;;17.90;94.90;;;;;;5053314;28;20476;-65
2022/05/24 10:11:29;;;;;;;2.57;1.43;;;18.00;95.20;;;;;;5053040;28;20477;-66
2022/05/24 10:14:08;;;;;;;5.40;1.53;;;18.00;95.60;;;;;;5052851;28;20483;-65
2022/05/24 10:16:42;;;;;;;2.37;1.37;;;18.10;94.50;;;;;;5053092;28;20433;-65
2022/05/24 10:19:31;;;;;;;3.13;1.70;;;18.00;95.30;;;;;;5053060;28;20472;-66
2022/05/24 10:22:08;;;;;;;4.03;1.80;;;18.00;96.20;;;;;;5053056;28;21008;-65
2022/05/24 10:25:00;;;;;;;3.43;1.43;;;18.00;95.30;;;;;;5053083;28;20576;-65
2022/05/24 10:27:36;;;;;;;2.90;2.20;;;18.10;96.50;;;;;;5052748;28;20524;-65
2022/05/24 10:30:07;;;;;;;2.83;1.50;;;18.20;96.80;;;;;;5052742;28;20487;-65
2022/05/24 10:38:53;;;;;;;2.30;1.50;;;18.10;94.10;;;;;;5052935;28;20934;-65
2022/05/24 10:41:26;;;;;;;2.60;1.40;;;18.00;94.00;;;;;;5052634;28;20683;-65
2022/05/24 10:44:00;;;;;;;3.50;1.37;;;18.00;94.90;;;;;;5052348;28;20560;-65
2022/05/24 10:46:34;;;;;;;2.83;1.50;;;18.10;94.60;;;;;;5053941;28;20864;-65
2022/05/24 10:49:15;;;;;;;2.73;1.33;;;18.10;94.60;;;;;;5056394;28;20555;-65
2022/05/24 10:51:49;;;;;;;3.20;1.40;;;18.30;95.40;;;;;;5056847;28;20476;-65
2022/05/24 10:54:28;;;;;;;2.30;1.40;;;18.40;95.20;;;;;;5056638;28;20937;-65
2022/05/24 10:56:58;;;;;;;2.63;1.03;;;18.40;93.90;;;;;;5056681;28;20486;-67
2022/05/24 10:59:37;;;;;;;2.37;1.10;;;18.50;93.70;;;;;;5056493;28;20527;-65
2022/05/24 11:02:12;;;;;;;1.90;1.10;;;18.60;94.10;;;;;;5056615;28;20527;-66
2022/05/24 11:04:52;;;;;;;2.60;1.27;;;18.80;93.00;;;;;;5056242;28;20486;-65
2022/05/24 11:07:21;;;;;;;2.07;1.13;;;18.90;93.20;;;;;;5056566;28;20445;-65
2022/05/24 11:09:55;;;;;;;4.80;1.40;;;19.10;93.40;;;;;;5056385;28;20519;-65
2022/05/24 11:12:27;;;;;;;2.00;0.93;;;19.50;93.70;;;;;;5055955;28;20439;-65
2022/05/24 11:14:57;;;;;;;2.70;1.17;;;20.00;93.70;;;;;;5056435;28;20528;-65
2022/05/24 11:17:24;;;;;;;2.70;1.10;;;20.40;94.60;;;;;;5056358;28;20926;-65
2022/05/24 11:19:55;;;;;;;2.17;1.17;;;20.80;95.10;;;;;;5056082;28;20441;-65
2022/05/24 11:22:28;;;;;;;3.37;1.30;;;21.10;93.50;;;;;;5056276;28;20488;-65
2022/05/24 11:25:03;;;;;;;3.67;1.30;;;21.10;91.30;;;;;;5056083;28;20545;-65
2022/05/24 11:27:33;;;;;;;2.30;1.20;;;20.70;86.10;;;;;;5056304;28;20436;-65
2022/05/24 11:30:07;;;;;;;2.40;1.20;;;20.50;84.90;;;;;;5056170;28;20458;-65
2022/05/24 11:32:38;;;;;;;3.20;1.13;;;20.20;84.90;;;;;;5056239;28;20444;-65
2022/05/24 11:35:10;;;;;;;4.10;1.40;;;20.10;86.40;;;;;;5056041;28;20523;-65
2022/05/24 11:37:39;;;;;;;3.13;1.10;;;20.00;88.00;;;;;;5056339;28;20520;-65
2022/05/24 11:40:31;;;;;;;7.17;1.23;;;19.80;87.50;;;;;;5055954;28;20447;-65
2022/05/24 11:42:59;;;;;;;3.90;1.50;;;19.70;88.30;;;;;;5055841;28;20433;-65
2022/05/24 11:45:58;;;;;;;3.97;1.00;;;19.60;87.50;;;;;;5055712;28;20601;-64
2022/05/24 11:48:49;;;;;;;3.27;1.40;;;19.50;86.40;;;;;;5055429;28;20518;-65
2022/05/24 11:51:39;;;;;;;3.07;1.10;;;19.40;86.20;;;;;;5055927;28;20535;-66
2022/05/24 11:54:40;;;;;;;2.17;1.20;;;19.30;87.30;;;;;;5055636;28;20476;-65
2022/05/24 11:57:26;;;;;;;2.30;1.37;;;19.40;88.50;;;;;;4993214;28;20559;-65
2022/05/24 11:59:54;;;;;;;2.00;1.20;;;19.60;88.10;;;;;;4993137;28;20530;-65
2022/05/24 12:08:34;;;;;;;3.17;1.30;;;19.40;89.60;;;;;;5055342;28;20420;-64
2022/05/24 12:11:17;;;;;;;2.10;1.10;;;19.30;90.70;;;;;;5055363;28;20513;-65
2022/05/24 12:14:11;;;;;;;4.33;1.20;;;19.10;90.00;;;;;;5055025;28;20443;-65
2022/05/24 12:16:42;;;;;;;2.37;0.80;;;18.80;88.80;;;;;;5055395;28;20437;-65
2022/05/24 12:19:11;;;;;;;2.07;1.07;;;18.50;89.30;;;;;;5055240;28;20433;-66
2022/05/24 12:21:42;;;;;;;5.03;0.80;;;18.30;89.80;;;;;;5055128;28;20528;-65
2022/05/24 12:24:43;;;;;;;5.00;1.17;;;18.20;90.00;;;;;;5054748;28;20515;-67
2022/05/24 12:27:18;;;;;;;1.67;0.70;;;17.90;89.30;;;;;;5054871;28;20517;-65
2022/05/24 12:29:48;;;;;;;3.47;0.60;;;17.70;89.90;;;;;;5055173;28;20527;-65
2022/05/24 12:32:18;;;;;;;4.80;3.03;;;17.50;90.00;;;;;;5054732;28;20868;-65
2022/05/24 12:34:45;;;;;;;1.53;0.60;;;17.40;90.10;;;;;;5054903;28;20473;-65
2022/05/24 12:37:21;;;;;;;2.70;1.00;;;17.30;90.30;;;;;;5054700;28;20515;-64
2022/05/24 12:40:17;;;;;;;2.10;1.00;;;17.10;90.50;;;;;;5054555;28;20582;-64
2022/05/24 12:42:50;;;;;;;1.70;0.60;;;17.00;90.30;;;;;;5054790;28;20520;-65
2022/05/24 12:45:22;;;;;;;6.80;0.97;;;16.80;90.00;;;;;;5054839;28;20516;-68
2022/05/24 12:47:52;;;;;;;5.73;0.70;;;16.70;90.00;;;;;;5054427;28;20476;-65
2022/05/24 12:50:28;;;;;;;2.53;0.80;;;16.60;89.00;;;;;;5054352;28;20499;-65
2022/05/24 12:53:03;;;;;;;1.90;0.63;;;16.50;88.90;;;;;;5054600;28;20444;-64
2022/05/24 12:58:27;;;;;;;1.70;0.83;;;16.40;89.20;;;;;;5054676;28;20420;-64
2022/05/24 13:01:10;;;;;;;2.43;1.00;;;16.40;88.60;;;;;;5054324;28;20469;-64
2022/05/24 13:03:37;;;;;;;3.87;0.93;;;16.50;90.20;;;;;;5054224;28;20441;-65
2022/05/24 13:06:04;;;;;;;2.33;1.00;;;16.60;89.80;;;;;;5054329;28;20886;-64
2022/05/24 13:08:31;;;;;;;3.30;0.90;;;16.60;90.50;;;;;;5053484;28;20516;-64
2022/05/24 13:11:01;;;;;;;1.60;0.90;;;16.60;90.10;;;;;;5053732;28;20524;-65
2022/05/24 13:13:28;;;;;;;2.17;0.90;;;16.60;90.00;;;;;;5054330;28;20800;-64
2022/05/24 13:15:58;;;;;;;1.90;0.77;;;16.60;90.00;;;;;;5054205;28;20857;-64
2022/05/24 13:18:28;;;;;;;1.93;0.87;;;16.60;90.50;;;;;;5054063;28;20524;-65
2022/05/24 13:20:57;;;;;;;2.20;1.13;;;16.70;91.40;;;;;;5053508;28;20444;-65
2022/05/24 13:23:29;;;;;;;1.90;0.80;;;16.80;91.70;;;;;;5053970;28;20529;-64
2022/05/24 13:25:57;;;;;;;1.90;0.80;;;16.90;89.30;;;;;;5053593;28;20909;-65
2022/05/24 13:28:42;;;;;;;2.83;0.80;;;16.90;88.50;;;;;;5053579;28;20442;-64
2022/05/24 13:34:02;;;;;;;2.47;0.97;;;17.10;86.80;;;;;;5054062;28;20560;-64
2022/05/24 13:36:31;;;;;;;1.73;0.80;;;17.10;87.60;;;;;;5053708;28;20899;-65
2022/05/24 13:39:26;;;;;;;3.10;0.93;;;17.10;88.40;;;;;;5053823;28;20469;-65
2022/05/24 13:42:00;;;;;;;1.97;0.70;;;17.10;87.50;;;;;;5018394;28;20524;-64
2022/05/24 13:44:30;;;;;;;2.43;0.80;;;17.00;88.40;;;;;;5053214;28;20468;-64
2022/05/24 13:47:01;;;;;;;2.07;1.00;;;17.00;88.80;;;;;;5053685;28;20511;-64
2022/05/24 13:49:44;;;;;;;1.90;0.77;;;16.90;88.10;;;;;;5053344;28;20499;-64
2022/05/24 13:52:19;;;;;;;3.33;1.00;;;16.90;88.30;;;;;;5053783;28;20451;-65
2022/05/24 13:54:48;;;;;;;4.00;1.30;;;16.90;90.40;;;;;;5053341;28;20523;-65